sensor_id;sensor_type;location;lat;lon;timestamp;P1;durP1;ratioP1;P2;durP2;ratioP2
4837;SDS011;2433;48.768;9.154;2023-06-04T00:02:12;3.23;;;2.93;;
4837;SDS011;2433;48.768;9.154;2023-06-04T00:04:37;4.40;;;3.87;;
4837;SDS011;2433;48.768;9.154;2023-06-04T00:07:03;4.77;;;3.10;;
4837;SDS011;2433;48.768;9.154;2023-06-04T00:09:29;5.80;;;4.03;;
4837;SDS011;2433;48.768;9.154;2023-06-04T00:11:55;3.93;;;3.50;;
4837;SDS011;2433;48.768;9.154;2023-06-04T00:14:20;5.40;;;3.23;;
4837;SDS011;2433;48.768;9.154;2023-06-04T00:16:46;6.73;;;3.17;;
4837;SDS011;2433;48.768;9.154;2023-06-04T00:19:12;5.80;;;3.47;;
4837;SDS011;2433;48.768;9.154;2023-06-04T00:21:37;4.43;;;3.47;;
4837;SDS011;2433;48.768;9.154;2023-06-04T00:24:03;4.40;;;3.80;;
4837;SDS011;2433;48.768;9.154;2023-06-04T00:26:28;6.00;;;3.43;;
4837;SDS011;2433;48.768;9.154;2023-06-04T00:28:54;4.17;;;3.60;;
4837;SDS011;2433;48.768;9.154;2023-06-04T00:31:20;6.03;;;3.67;;
4837;SDS011;2433;48.768;9.154;2023-06-04T00:33:46;3.70;;;3.40;;
4837;SDS011;2433;48.768;9.154;2023-06-04T00:36:15;5.30;;;3.43;;
4837;SDS011;2433;48.768;9.154;2023-06-04T00:38:41;6.03;;;3.87;;
4837;SDS011;2433;48.768;9.154;2023-06-04T00:41:07;4.40;;;3.67;;
4837;SDS011;2433;48.768;9.154;2023-06-04T00:43:32;4.33;;;3.03;;
4837;SDS011;2433;48.768;9.154;2023-06-04T00:45:58;3.33;;;2.93;;
4837;SDS011;2433;48.768;9.154;2023-06-04T00:48:25;4.37;;;3.40;;
4837;SDS011;2433;48.768;9.154;2023-06-04T00:50:53;4.53;;;3.53;;
4837;SDS011;2433;48.768;9.154;2023-06-04T00:53:20;4.07;;;3.70;;
4837;SDS011;2433;48.768;9.154;2023-06-04T00:55:46;4.83;;;2.70;;
4837;SDS011;2433;48.768;9.154;2023-06-04T00:58:11;4.03;;;3.40;;
4837;SDS011;2433;48.768;9.154;2023-06-04T01:00:38;4.67;;;3.63;;
4837;SDS011;2433;48.768;9.154;2023-06-04T01:03:12;4.37;;;3.57;;
4837;SDS011;2433;48.768;9.154;2023-06-04T01:08:17;3.13;;;2.93;;
4837;SDS011;2433;48.768;9.154;2023-06-04T01:10:53;3.50;;;3.20;;
4837;SDS011;2433;48.768;9.154;2023-06-04T01:13:19;4.80;;;4.40;;
4837;SDS011;2433;48.768;9.154;2023-06-04T01:15:45;4.70;;;2.93;;
4837;SDS011;2433;48.768;9.154;2023-06-04T01:18:13;4.87;;;3.70;;
4837;SDS011;2433;48.768;9.154;2023-06-04T01:20:57;3.63;;;3.20;;
4837;SDS011;2433;48.768;9.154;2023-06-04T01:23:44;4.70;;;3.80;;
4837;SDS011;2433;48.768;9.154;2023-06-04T01:26:12;3.93;;;3.07;;
4837;SDS011;2433;48.768;9.154;2023-06-04T01:28:38;3.67;;;2.87;;
4837;SDS011;2433;48.768;9.154;2023-06-04T01:31:04;4.20;;;3.27;;
4837;SDS011;2433;48.768;9.154;2023-06-04T01:33:32;3.73;;;3.30;;
4837;SDS011;2433;48.768;9.154;2023-06-04T01:35:58;3.80;;;2.73;;
4837;SDS011;2433;48.768;9.154;2023-06-04T01:38:24;3.93;;;3.30;;
4837;SDS011;2433;48.768;9.154;2023-06-04T01:40:50;4.17;;;3.10;;
4837;SDS011;2433;48.768;9.154;2023-06-04T01:43:16;3.37;;;3.07;;
4837;SDS011;2433;48.768;9.154;2023-06-04T01:45:41;5.17;;;3.53;;
4837;SDS011;2433;48.768;9.154;2023-06-04T01:48:07;3.63;;;3.30;;
4837;SDS011;2433;48.768;9.154;2023-06-04T01:50:33;3.97;;;3.57;;
4837;SDS011;2433;48.768;9.154;2023-06-04T01:52:58;5.43;;;3.60;;
4837;SDS011;2433;48.768;9.154;2023-06-04T01:55:24;3.37;;;3.03;;
4837;SDS011;2433;48.768;9.154;2023-06-04T01:57:51;5.33;;;2.87;;
4837;SDS011;2433;48.768;9.154;2023-06-04T02:00:17;5.20;;;3.10;;
4837;SDS011;2433;48.768;9.154;2023-06-04T02:02:43;4.13;;;3.10;;
4837;SDS011;2433;48.768;9.154;2023-06-04T02:05:11;4.90;;;3.47;;
4837;SDS011;2433;48.768;9.154;2023-06-04T02:07:38;5.47;;;2.70;;
4837;SDS011;2433;48.768;9.154;2023-06-04T02:10:15;4.27;;;2.90;;
4837;SDS011;2433;48.768;9.154;2023-06-04T02:12:54;4.90;;;3.80;;
4837;SDS011;2433;48.768;9.154;2023-06-04T02:15:24;4.53;;;3.47;;
4837;SDS011;2433;48.768;9.154;2023-06-04T02:17:50;3.30;;;3.00;;
4837;SDS011;2433;48.768;9.154;2023-06-04T02:20:20;5.30;;;3.50;;
4837;SDS011;2433;48.768;9.154;2023-06-04T02:22:46;4.07;;;2.70;;
4837;SDS011;2433;48.768;9.154;2023-06-04T02:25:12;4.07;;;3.50;;
4837;SDS011;2433;48.768;9.154;2023-06-04T02:27:38;4.93;;;3.30;;
4837;SDS011;2433;48.768;9.154;2023-06-04T02:30:04;3.67;;;2.80;;
4837;SDS011;2433;48.768;9.154;2023-06-04T02:32:31;5.43;;;3.00;;
4837;SDS011;2433;48.768;9.154;2023-06-04T02:34:58;4.50;;;2.37;;
4837;SDS011;2433;48.768;9.154;2023-06-04T02:37:24;3.70;;;3.30;;
4837;SDS011;2433;48.768;9.154;2023-06-04T02:39:50;6.60;;;3.57;;
4837;SDS011;2433;48.768;9.154;2023-06-04T02:42:15;4.20;;;3.20;;
4837;SDS011;2433;48.768;9.154;2023-06-04T02:44:41;3.93;;;3.53;;
4837;SDS011;2433;48.768;9.154;2023-06-04T02:47:06;3.70;;;3.33;;
4837;SDS011;2433;48.768;9.154;2023-06-04T02:49:32;3.33;;;2.70;;
4837;SDS011;2433;48.768;9.154;2023-06-04T02:51:58;4.47;;;2.93;;
4837;SDS011;2433;48.768;9.154;2023-06-04T02:54:24;3.60;;;2.30;;
4837;SDS011;2433;48.768;9.154;2023-06-04T02:56:49;4.57;;;2.87;;
4837;SDS011;2433;48.768;9.154;2023-06-04T02:59:15;5.60;;;2.77;;
4837;SDS011;2433;48.768;9.154;2023-06-04T03:01:40;4.30;;;2.47;;
4837;SDS011;2433;48.768;9.154;2023-06-04T03:04:06;2.70;;;2.40;;
4837;SDS011;2433;48.768;9.154;2023-06-04T03:06:35;3.50;;;2.37;;
4837;SDS011;2433;48.768;9.154;2023-06-04T03:09:03;3.30;;;2.73;;
4837;SDS011;2433;48.768;9.154;2023-06-04T03:11:29;4.97;;;2.20;;
4837;SDS011;2433;48.768;9.154;2023-06-04T03:13:55;3.43;;;2.77;;
4837;SDS011;2433;48.768;9.154;2023-06-04T03:16:21;3.13;;;2.80;;
4837;SDS011;2433;48.768;9.154;2023-06-04T03:18:46;2.97;;;2.67;;
4837;SDS011;2433;48.768;9.154;2023-06-04T03:21:12;3.13;;;2.50;;
4837;SDS011;2433;48.768;9.154;2023-06-04T03:23:38;5.67;;;3.37;;
4837;SDS011;2433;48.768;9.154;2023-06-04T03:26:05;2.80;;;2.50;;
4837;SDS011;2433;48.768;9.154;2023-06-04T03:28:31;3.40;;;2.70;;
4837;SDS011;2433;48.768;9.154;2023-06-04T03:30:58;3.73;;;3.33;;
4837;SDS011;2433;48.768;9.154;2023-06-04T03:33:25;3.13;;;2.93;;
4837;SDS011;2433;48.768;9.154;2023-06-04T03:35:51;3.73;;;2.90;;
4837;SDS011;2433;48.768;9.154;2023-06-04T03:38:18;3.70;;;2.90;;
4837;SDS011;2433;48.768;9.154;2023-06-04T03:40:45;7.80;;;2.67;;
4837;SDS011;2433;48.768;9.154;2023-06-04T03:43:11;5.87;;;2.20;;
4837;SDS011;2433;48.768;9.154;2023-06-04T03:45:36;3.90;;;2.33;;
4837;SDS011;2433;48.768;9.154;2023-06-04T03:48:02;3.67;;;2.57;;
4837;SDS011;2433;48.768;9.154;2023-06-04T03:50:29;3.20;;;2.23;;
4837;SDS011;2433;48.768;9.154;2023-06-04T03:52:55;3.97;;;2.10;;
4837;SDS011;2433;48.768;9.154;2023-06-04T03:55:22;2.43;;;2.07;;
4837;SDS011;2433;48.768;9.154;2023-06-04T03:57:49;6.80;;;2.70;;
4837;SDS011;2433;48.768;9.154;2023-06-04T04:00:15;2.40;;;2.20;;
4837;SDS011;2433;48.768;9.154;2023-06-04T04:02:44;1.80;;;1.70;;
4837;SDS011;2433;48.768;9.154;2023-06-04T04:05:21;3.23;;;2.40;;
4837;SDS011;2433;48.768;9.154;2023-06-04T04:07:48;4.77;;;2.17;;
4837;SDS011;2433;48.768;9.154;2023-06-04T04:10:16;2.47;;;2.17;;
4837;SDS011;2433;48.768;9.154;2023-06-04T04:12:42;3.33;;;2.00;;
4837;SDS011;2433;48.768;9.154;2023-06-04T04:15:07;3.00;;;2.13;;
4837;SDS011;2433;48.768;9.154;2023-06-04T04:17:34;2.10;;;2.00;;
4837;SDS011;2433;48.768;9.154;2023-06-04T04:19:59;2.30;;;2.00;;
4837;SDS011;2433;48.768;9.154;2023-06-04T04:22:26;1.87;;;1.70;;
4837;SDS011;2433;48.768;9.154;2023-06-04T04:24:52;4.20;;;2.77;;
4837;SDS011;2433;48.768;9.154;2023-06-04T04:27:18;3.03;;;2.60;;
4837;SDS011;2433;48.768;9.154;2023-06-04T04:29:44;4.10;;;2.27;;
4837;SDS011;2433;48.768;9.154;2023-06-04T04:32:13;4.40;;;2.30;;
4837;SDS011;2433;48.768;9.154;2023-06-04T04:34:51;3.90;;;2.20;;
4837;SDS011;2433;48.768;9.154;2023-06-04T04:37:20;2.20;;;1.90;;
4837;SDS011;2433;48.768;9.154;2023-06-04T04:39:47;3.07;;;2.60;;
4837;SDS011;2433;48.768;9.154;2023-06-04T04:42:17;4.77;;;2.50;;
4837;SDS011;2433;48.768;9.154;2023-06-04T04:44:44;2.47;;;2.03;;
4837;SDS011;2433;48.768;9.154;2023-06-04T04:47:13;2.37;;;2.17;;
4837;SDS011;2433;48.768;9.154;2023-06-04T04:49:40;2.40;;;2.07;;
4837;SDS011;2433;48.768;9.154;2023-06-04T04:52:06;2.43;;;2.23;;
4837;SDS011;2433;48.768;9.154;2023-06-04T04:54:31;4.17;;;3.40;;
4837;SDS011;2433;48.768;9.154;2023-06-04T04:56:57;3.40;;;2.47;;
4837;SDS011;2433;48.768;9.154;2023-06-04T04:59:23;4.70;;;2.23;;
4837;SDS011;2433;48.768;9.154;2023-06-04T05:01:49;2.80;;;1.90;;
4837;SDS011;2433;48.768;9.154;2023-06-04T05:04:15;3.00;;;2.30;;
4837;SDS011;2433;48.768;9.154;2023-06-04T05:06:41;2.00;;;1.80;;
4837;SDS011;2433;48.768;9.154;2023-06-04T05:09:07;3.80;;;2.67;;
4837;SDS011;2433;48.768;9.154;2023-06-04T05:11:33;2.50;;;1.80;;
4837;SDS011;2433;48.768;9.154;2023-06-04T05:13:59;2.17;;;2.00;;
4837;SDS011;2433;48.768;9.154;2023-06-04T05:16:25;2.57;;;1.83;;
4837;SDS011;2433;48.768;9.154;2023-06-04T05:18:54;1.90;;;1.63;;
4837;SDS011;2433;48.768;9.154;2023-06-04T05:21:23;2.70;;;1.27;;
4837;SDS011;2433;48.768;9.154;2023-06-04T05:23:55;1.67;;;1.57;;
4837;SDS011;2433;48.768;9.154;2023-06-04T05:26:24;1.77;;;1.43;;
4837;SDS011;2433;48.768;9.154;2023-06-04T05:28:55;1.73;;;1.63;;
4837;SDS011;2433;48.768;9.154;2023-06-04T05:31:21;2.60;;;1.90;;
4837;SDS011;2433;48.768;9.154;2023-06-04T05:33:47;1.90;;;1.40;;
4837;SDS011;2433;48.768;9.154;2023-06-04T05:36:16;2.33;;;1.37;;
4837;SDS011;2433;48.768;9.154;2023-06-04T05:38:49;1.67;;;1.13;;
4837;SDS011;2433;48.768;9.154;2023-06-04T05:41:23;1.60;;;1.30;;
4837;SDS011;2433;48.768;9.154;2023-06-04T05:43:49;2.70;;;1.57;;
4837;SDS011;2433;48.768;9.154;2023-06-04T05:46:16;1.70;;;1.37;;
4837;SDS011;2433;48.768;9.154;2023-06-04T05:48:43;2.00;;;1.27;;
4837;SDS011;2433;48.768;9.154;2023-06-04T05:51:08;1.77;;;1.10;;
4837;SDS011;2433;48.768;9.154;2023-06-04T05:53:36;1.63;;;1.20;;
4837;SDS011;2433;48.768;9.154;2023-06-04T05:56:02;2.30;;;1.57;;
4837;SDS011;2433;48.768;9.154;2023-06-04T05:58:29;2.50;;;1.37;;
4837;SDS011;2433;48.768;9.154;2023-06-04T06:00:55;1.03;;;0.93;;
4837;SDS011;2433;48.768;9.154;2023-06-04T06:03:21;1.20;;;1.10;;
4837;SDS011;2433;48.768;9.154;2023-06-04T06:05:48;2.33;;;1.53;;
4837;SDS011;2433;48.768;9.154;2023-06-04T06:08:14;1.57;;;1.47;;
4837;SDS011;2433;48.768;9.154;2023-06-04T06:10:40;1.33;;;1.20;;
4837;SDS011;2433;48.768;9.154;2023-06-04T06:13:05;2.87;;;1.27;;
4837;SDS011;2433;48.768;9.154;2023-06-04T06:15:31;1.83;;;1.70;;
4837;SDS011;2433;48.768;9.154;2023-06-04T06:17:58;1.47;;;1.37;;
4837;SDS011;2433;48.768;9.154;2023-06-04T06:20:24;2.63;;;1.50;;
4837;SDS011;2433;48.768;9.154;2023-06-04T06:22:49;2.30;;;1.30;;
4837;SDS011;2433;48.768;9.154;2023-06-04T06:25:17;1.90;;;1.53;;
4837;SDS011;2433;48.768;9.154;2023-06-04T06:27:49;2.60;;;1.57;;
4837;SDS011;2433;48.768;9.154;2023-06-04T06:30:17;2.63;;;1.60;;
4837;SDS011;2433;48.768;9.154;2023-06-04T06:32:43;2.60;;;2.07;;
4837;SDS011;2433;48.768;9.154;2023-06-04T06:35:09;1.73;;;1.60;;
4837;SDS011;2433;48.768;9.154;2023-06-04T06:37:35;2.83;;;1.40;;
4837;SDS011;2433;48.768;9.154;2023-06-04T06:40:00;2.20;;;1.40;;
4837;SDS011;2433;48.768;9.154;2023-06-04T06:42:26;2.80;;;1.63;;
4837;SDS011;2433;48.768;9.154;2023-06-04T06:44:53;2.77;;;1.53;;
4837;SDS011;2433;48.768;9.154;2023-06-04T06:47:18;3.00;;;1.40;;
4837;SDS011;2433;48.768;9.154;2023-06-04T06:49:44;1.07;;;0.90;;
4837;SDS011;2433;48.768;9.154;2023-06-04T06:52:09;1.53;;;1.23;;
4837;SDS011;2433;48.768;9.154;2023-06-04T06:54:35;2.27;;;1.63;;
4837;SDS011;2433;48.768;9.154;2023-06-04T06:57:00;1.93;;;1.73;;
4837;SDS011;2433;48.768;9.154;2023-06-04T06:59:26;1.40;;;1.30;;
4837;SDS011;2433;48.768;9.154;2023-06-04T07:01:52;1.87;;;1.37;;
4837;SDS011;2433;48.768;9.154;2023-06-04T07:04:18;1.40;;;1.27;;
4837;SDS011;2433;48.768;9.154;2023-06-04T07:06:43;2.30;;;1.33;;
4837;SDS011;2433;48.768;9.154;2023-06-04T07:09:09;2.07;;;1.50;;
4837;SDS011;2433;48.768;9.154;2023-06-04T07:11:35;1.20;;;1.10;;
4837;SDS011;2433;48.768;9.154;2023-06-04T07:14:01;1.57;;;1.47;;
4837;SDS011;2433;48.768;9.154;2023-06-04T07:16:29;2.73;;;1.30;;
4837;SDS011;2433;48.768;9.154;2023-06-04T07:18:55;0.93;;;0.70;;
4837;SDS011;2433;48.768;9.154;2023-06-04T07:21:20;2.60;;;1.20;;
4837;SDS011;2433;48.768;9.154;2023-06-04T07:23:49;1.53;;;0.87;;
4837;SDS011;2433;48.768;9.154;2023-06-04T07:26:16;1.47;;;1.10;;
4837;SDS011;2433;48.768;9.154;2023-06-04T07:28:43;1.97;;;1.60;;
4837;SDS011;2433;48.768;9.154;2023-06-04T07:31:08;1.63;;;1.53;;
4837;SDS011;2433;48.768;9.154;2023-06-04T07:33:34;1.53;;;1.27;;
4837;SDS011;2433;48.768;9.154;2023-06-04T07:35:59;1.10;;;0.90;;
4837;SDS011;2433;48.768;9.154;2023-06-04T07:38:25;1.67;;;1.23;;
4837;SDS011;2433;48.768;9.154;2023-06-04T07:40:52;2.50;;;1.30;;
4837;SDS011;2433;48.768;9.154;2023-06-04T07:43:17;2.90;;;1.10;;
4837;SDS011;2433;48.768;9.154;2023-06-04T07:45:43;2.30;;;2.10;;
4837;SDS011;2433;48.768;9.154;2023-06-04T07:48:09;1.40;;;1.20;;
4837;SDS011;2433;48.768;9.154;2023-06-04T07:50:36;1.83;;;1.13;;
4837;SDS011;2433;48.768;9.154;2023-06-04T07:53:01;1.73;;;1.13;;
4837;SDS011;2433;48.768;9.154;2023-06-04T07:55:27;1.87;;;1.30;;
4837;SDS011;2433;48.768;9.154;2023-06-04T07:57:52;2.87;;;1.90;;
4837;SDS011;2433;48.768;9.154;2023-06-04T08:00:18;1.30;;;1.20;;
4837;SDS011;2433;48.768;9.154;2023-06-04T08:02:44;2.50;;;1.60;;
4837;SDS011;2433;48.768;9.154;2023-06-04T08:05:09;3.67;;;3.30;;
4837;SDS011;2433;48.768;9.154;2023-06-04T08:07:35;1.53;;;1.40;;
4837;SDS011;2433;48.768;9.154;2023-06-04T08:10:01;2.33;;;1.70;;
4837;SDS011;2433;48.768;9.154;2023-06-04T08:12:26;1.70;;;1.10;;
4837;SDS011;2433;48.768;9.154;2023-06-04T08:14:52;3.10;;;1.33;;
4837;SDS011;2433;48.768;9.154;2023-06-04T08:17:21;1.00;;;0.90;;
4837;SDS011;2433;48.768;9.154;2023-06-04T08:19:57;1.90;;;1.40;;
4837;SDS011;2433;48.768;9.154;2023-06-04T08:22:35;2.17;;;1.03;;
4837;SDS011;2433;48.768;9.154;2023-06-04T08:25:21;1.40;;;1.30;;
4837;SDS011;2433;48.768;9.154;2023-06-04T08:28:07;2.10;;;1.43;;
4837;SDS011;2433;48.768;9.154;2023-06-04T08:30:52;1.93;;;1.50;;
4837;SDS011;2433;48.768;9.154;2023-06-04T08:33:33;1.23;;;0.87;;
4837;SDS011;2433;48.768;9.154;2023-06-04T08:36:02;2.10;;;1.10;;
4837;SDS011;2433;48.768;9.154;2023-06-04T08:38:27;2.50;;;1.60;;
4837;SDS011;2433;48.768;9.154;2023-06-04T08:40:53;2.17;;;1.80;;
4837;SDS011;2433;48.768;9.154;2023-06-04T08:43:21;1.30;;;1.10;;
4837;SDS011;2433;48.768;9.154;2023-06-04T08:45:49;0.77;;;0.60;;
4837;SDS011;2433;48.768;9.154;2023-06-04T08:48:16;0.80;;;0.77;;
4837;SDS011;2433;48.768;9.154;2023-06-04T08:50:43;1.90;;;1.40;;
4837;SDS011;2433;48.768;9.154;2023-06-04T08:53:11;1.43;;;0.90;;
4837;SDS011;2433;48.768;9.154;2023-06-04T08:55:36;2.17;;;1.50;;
4837;SDS011;2433;48.768;9.154;2023-06-04T08:58:03;2.80;;;1.40;;
4837;SDS011;2433;48.768;9.154;2023-06-04T09:00:33;2.37;;;1.47;;
4837;SDS011;2433;48.768;9.154;2023-06-04T09:02:59;2.00;;;1.07;;
4837;SDS011;2433;48.768;9.154;2023-06-04T09:05:27;2.27;;;2.13;;
4837;SDS011;2433;48.768;9.154;2023-06-04T09:07:53;0.70;;;0.60;;
4837;SDS011;2433;48.768;9.154;2023-06-04T09:10:21;1.50;;;1.40;;
4837;SDS011;2433;48.768;9.154;2023-06-04T09:12:47;2.00;;;1.90;;
4837;SDS011;2433;48.768;9.154;2023-06-04T09:15:14;3.03;;;1.73;;
4837;SDS011;2433;48.768;9.154;2023-06-04T09:17:40;3.43;;;1.87;;
4837;SDS011;2433;48.768;9.154;2023-06-04T09:20:06;2.23;;;1.50;;
4837;SDS011;2433;48.768;9.154;2023-06-04T09:22:35;1.60;;;1.50;;
4837;SDS011;2433;48.768;9.154;2023-06-04T09:25:03;1.77;;;1.67;;
4837;SDS011;2433;48.768;9.154;2023-06-04T09:27:36;2.60;;;1.90;;
4837;SDS011;2433;48.768;9.154;2023-06-04T09:30:03;2.67;;;2.07;;
4837;SDS011;2433;48.768;9.154;2023-06-04T09:32:30;1.93;;;1.83;;
4837;SDS011;2433;48.768;9.154;2023-06-04T09:35:07;2.10;;;1.87;;
4837;SDS011;2433;48.768;9.154;2023-06-04T09:37:37;3.30;;;1.80;;
4837;SDS011;2433;48.768;9.154;2023-06-04T09:40:03;2.30;;;1.37;;
4837;SDS011;2433;48.768;9.154;2023-06-04T09:42:30;1.90;;;1.43;;
4837;SDS011;2433;48.768;9.154;2023-06-04T09:44:56;2.40;;;1.70;;
4837;SDS011;2433;48.768;9.154;2023-06-04T09:47:23;1.20;;;1.00;;
4837;SDS011;2433;48.768;9.154;2023-06-04T09:49:49;2.27;;;1.43;;
4837;SDS011;2433;48.768;9.154;2023-06-04T09:52:16;2.00;;;1.50;;
4837;SDS011;2433;48.768;9.154;2023-06-04T09:54:42;2.50;;;1.63;;
4837;SDS011;2433;48.768;9.154;2023-06-04T09:57:15;2.97;;;1.77;;
4837;SDS011;2433;48.768;9.154;2023-06-04T09:59:45;2.83;;;1.60;;
4837;SDS011;2433;48.768;9.154;2023-06-04T10:02:11;1.77;;;1.43;;
4837;SDS011;2433;48.768;9.154;2023-06-04T10:04:41;3.60;;;2.07;;
4837;SDS011;2433;48.768;9.154;2023-06-04T10:07:11;3.90;;;2.40;;
4837;SDS011;2433;48.768;9.154;2023-06-04T10:09:41;2.80;;;2.10;;
4837;SDS011;2433;48.768;9.154;2023-06-04T10:12:14;1.53;;;1.00;;
4837;SDS011;2433;48.768;9.154;2023-06-04T10:14:45;1.77;;;1.63;;
4837;SDS011;2433;48.768;9.154;2023-06-04T10:17:15;2.03;;;1.87;;
4837;SDS011;2433;48.768;9.154;2023-06-04T10:19:42;3.67;;;2.10;;
4837;SDS011;2433;48.768;9.154;2023-06-04T10:22:09;2.00;;;1.23;;
4837;SDS011;2433;48.768;9.154;2023-06-04T10:24:36;2.30;;;1.70;;
4837;SDS011;2433;48.768;9.154;2023-06-04T10:27:02;1.60;;;1.43;;
4837;SDS011;2433;48.768;9.154;2023-06-04T10:29:35;1.80;;;1.60;;
4837;SDS011;2433;48.768;9.154;2023-06-04T10:32:01;3.03;;;1.87;;
4837;SDS011;2433;48.768;9.154;2023-06-04T10:34:26;3.07;;;2.33;;
4837;SDS011;2433;48.768;9.154;2023-06-04T10:36:52;3.70;;;2.20;;
4837;SDS011;2433;48.768;9.154;2023-06-04T10:39:28;2.27;;;1.40;;
4837;SDS011;2433;48.768;9.154;2023-06-04T10:42:04;3.17;;;1.93;;
4837;SDS011;2433;48.768;9.154;2023-06-04T10:44:31;2.20;;;2.00;;
4837;SDS011;2433;48.768;9.154;2023-06-04T10:46:58;2.17;;;1.97;;
4837;SDS011;2433;48.768;9.154;2023-06-04T10:49:27;2.93;;;2.30;;
4837;SDS011;2433;48.768;9.154;2023-06-04T10:51:54;2.37;;;2.03;;
4837;SDS011;2433;48.768;9.154;2023-06-04T10:54:28;1.80;;;1.70;;
4837;SDS011;2433;48.768;9.154;2023-06-04T10:56:54;2.13;;;1.70;;
4837;SDS011;2433;48.768;9.154;2023-06-04T10:59:20;3.37;;;2.17;;
4837;SDS011;2433;48.768;9.154;2023-06-04T11:01:46;2.57;;;2.30;;
4837;SDS011;2433;48.768;9.154;2023-06-04T11:04:22;2.47;;;1.80;;
4837;SDS011;2433;48.768;9.154;2023-06-04T11:07:10;2.60;;;1.87;;
4837;SDS011;2433;48.768;9.154;2023-06-04T11:09:47;3.70;;;2.30;;
4837;SDS011;2433;48.768;9.154;2023-06-04T11:12:13;2.70;;;2.50;;
4837;SDS011;2433;48.768;9.154;2023-06-04T11:14:39;2.60;;;2.10;;
4837;SDS011;2433;48.768;9.154;2023-06-04T11:17:12;3.37;;;2.00;;
4837;SDS011;2433;48.768;9.154;2023-06-04T11:19:39;3.40;;;2.30;;
4837;SDS011;2433;48.768;9.154;2023-06-04T11:22:05;1.07;;;0.90;;
4837;SDS011;2433;48.768;9.154;2023-06-04T11:24:32;2.00;;;1.80;;
4837;SDS011;2433;48.768;9.154;2023-06-04T11:26:58;3.13;;;2.40;;
4837;SDS011;2433;48.768;9.154;2023-06-04T11:29:27;3.30;;;2.67;;
4837;SDS011;2433;48.768;9.154;2023-06-04T11:31:53;3.60;;;2.90;;
4837;SDS011;2433;48.768;9.154;2023-06-04T11:34:28;1.40;;;1.27;;
4837;SDS011;2433;48.768;9.154;2023-06-04T11:36:54;1.07;;;0.97;;
4837;SDS011;2433;48.768;9.154;2023-06-04T11:39:21;3.70;;;1.80;;
4837;SDS011;2433;48.768;9.154;2023-06-04T11:41:47;2.43;;;2.00;;
4837;SDS011;2433;48.768;9.154;2023-06-04T11:44:14;2.80;;;2.23;;
4837;SDS011;2433;48.768;9.154;2023-06-04T11:46:40;2.70;;;2.50;;
4837;SDS011;2433;48.768;9.154;2023-06-04T11:49:07;4.00;;;1.83;;
4837;SDS011;2433;48.768;9.154;2023-06-04T11:51:32;2.93;;;2.17;;
4837;SDS011;2433;48.768;9.154;2023-06-04T11:53:58;2.97;;;2.00;;
4837;SDS011;2433;48.768;9.154;2023-06-04T11:56:24;1.93;;;1.73;;
4837;SDS011;2433;48.768;9.154;2023-06-04T11:58:56;2.40;;;2.20;;
4837;SDS011;2433;48.768;9.154;2023-06-04T12:01:21;1.90;;;1.70;;
4837;SDS011;2433;48.768;9.154;2023-06-04T12:03:48;2.80;;;2.40;;
4837;SDS011;2433;48.768;9.154;2023-06-04T12:08:46;2.40;;;2.10;;
4837;SDS011;2433;48.768;9.154;2023-06-04T12:11:28;2.27;;;2.07;;
4837;SDS011;2433;48.768;9.154;2023-06-04T12:14:05;2.80;;;2.23;;
4837;SDS011;2433;48.768;9.154;2023-06-04T12:16:31;4.13;;;2.27;;
4837;SDS011;2433;48.768;9.154;2023-06-04T12:19:31;1.73;;;1.30;;
4837;SDS011;2433;48.768;9.154;2023-06-04T12:22:04;3.80;;;2.10;;
4837;SDS011;2433;48.768;9.154;2023-06-04T12:24:32;2.30;;;1.60;;
4837;SDS011;2433;48.768;9.154;2023-06-04T12:27:02;3.67;;;2.03;;
4837;SDS011;2433;48.768;9.154;2023-06-04T12:29:34;1.77;;;1.63;;
4837;SDS011;2433;48.768;9.154;2023-06-04T12:32:07;7.70;;;4.70;;
4837;SDS011;2433;48.768;9.154;2023-06-04T12:34:37;2.30;;;2.10;;
4837;SDS011;2433;48.768;9.154;2023-06-04T12:37:03;3.50;;;2.60;;
4837;SDS011;2433;48.768;9.154;2023-06-04T12:39:31;4.27;;;2.20;;
4837;SDS011;2433;48.768;9.154;2023-06-04T12:41:58;2.60;;;2.40;;
4837;SDS011;2433;48.768;9.154;2023-06-04T12:44:23;4.03;;;2.60;;
4837;SDS011;2433;48.768;9.154;2023-06-04T12:46:49;3.60;;;2.70;;
4837;SDS011;2433;48.768;9.154;2023-06-04T12:49:15;2.10;;;1.80;;
4837;SDS011;2433;48.768;9.154;2023-06-04T12:51:40;2.47;;;2.17;;
4837;SDS011;2433;48.768;9.154;2023-06-04T12:54:06;1.90;;;1.70;;
4837;SDS011;2433;48.768;9.154;2023-06-04T12:56:32;2.97;;;2.20;;
4837;SDS011;2433;48.768;9.154;2023-06-04T12:58:58;2.90;;;2.40;;
4837;SDS011;2433;48.768;9.154;2023-06-04T13:01:24;3.10;;;2.10;;
4837;SDS011;2433;48.768;9.154;2023-06-04T13:03:49;1.67;;;1.57;;
4837;SDS011;2433;48.768;9.154;2023-06-04T13:06:15;2.20;;;1.67;;
4837;SDS011;2433;48.768;9.154;2023-06-04T13:08:41;3.70;;;2.73;;
4837;SDS011;2433;48.768;9.154;2023-06-04T13:11:06;2.80;;;2.00;;
4837;SDS011;2433;48.768;9.154;2023-06-04T13:13:33;2.53;;;1.97;;
4837;SDS011;2433;48.768;9.154;2023-06-04T13:15:58;3.20;;;2.27;;
4837;SDS011;2433;48.768;9.154;2023-06-04T13:18:24;2.70;;;2.50;;
4837;SDS011;2433;48.768;9.154;2023-06-04T13:20:49;3.23;;;2.50;;
4837;SDS011;2433;48.768;9.154;2023-06-04T13:23:15;1.03;;;0.93;;
4837;SDS011;2433;48.768;9.154;2023-06-04T13:25:41;1.53;;;1.43;;
4837;SDS011;2433;48.768;9.154;2023-06-04T13:28:06;2.20;;;1.70;;
4837;SDS011;2433;48.768;9.154;2023-06-04T13:30:34;1.90;;;1.70;;
4837;SDS011;2433;48.768;9.154;2023-06-04T13:33:02;3.20;;;1.73;;
4837;SDS011;2433;48.768;9.154;2023-06-04T13:35:28;2.03;;;1.73;;
4837;SDS011;2433;48.768;9.154;2023-06-04T13:37:54;2.50;;;1.90;;
4837;SDS011;2433;48.768;9.154;2023-06-04T13:40:20;3.33;;;1.77;;
4837;SDS011;2433;48.768;9.154;2023-06-04T13:42:45;1.67;;;1.30;;
4837;SDS011;2433;48.768;9.154;2023-06-04T13:45:11;2.00;;;1.80;;
4837;SDS011;2433;48.768;9.154;2023-06-04T13:47:36;2.90;;;2.17;;
4837;SDS011;2433;48.768;9.154;2023-06-04T13:50:02;2.17;;;1.60;;
4837;SDS011;2433;48.768;9.154;2023-06-04T13:52:28;1.63;;;1.40;;
4837;SDS011;2433;48.768;9.154;2023-06-04T13:54:54;2.80;;;1.87;;
4837;SDS011;2433;48.768;9.154;2023-06-04T13:57:21;2.80;;;1.50;;
4837;SDS011;2433;48.768;9.154;2023-06-04T13:59:46;2.00;;;1.80;;
4837;SDS011;2433;48.768;9.154;2023-06-04T14:02:13;2.90;;;2.23;;
4837;SDS011;2433;48.768;9.154;2023-06-04T14:04:40;3.53;;;1.73;;
4837;SDS011;2433;48.768;9.154;2023-06-04T14:07:05;3.13;;;1.97;;
4837;SDS011;2433;48.768;9.154;2023-06-04T14:09:31;2.00;;;1.57;;
4837;SDS011;2433;48.768;9.154;2023-06-04T14:11:58;4.40;;;2.20;;
4837;SDS011;2433;48.768;9.154;2023-06-04T14:14:23;2.40;;;1.50;;
4837;SDS011;2433;48.768;9.154;2023-06-04T14:16:49;3.30;;;1.83;;
4837;SDS011;2433;48.768;9.154;2023-06-04T14:19:15;5.17;;;2.30;;
4837;SDS011;2433;48.768;9.154;2023-06-04T14:21:44;3.40;;;2.53;;
4837;SDS011;2433;48.768;9.154;2023-06-04T14:24:10;3.30;;;2.03;;
4837;SDS011;2433;48.768;9.154;2023-06-04T14:26:35;3.20;;;2.23;;
4837;SDS011;2433;48.768;9.154;2023-06-04T14:29:01;3.13;;;2.20;;
4837;SDS011;2433;48.768;9.154;2023-06-04T14:31:27;3.13;;;1.60;;
4837;SDS011;2433;48.768;9.154;2023-06-04T14:33:53;1.80;;;1.50;;
4837;SDS011;2433;48.768;9.154;2023-06-04T14:36:18;3.83;;;1.90;;
4837;SDS011;2433;48.768;9.154;2023-06-04T14:38:44;2.30;;;1.80;;
4837;SDS011;2433;48.768;9.154;2023-06-04T14:41:10;1.60;;;1.50;;
4837;SDS011;2433;48.768;9.154;2023-06-04T14:43:36;3.47;;;2.00;;
4837;SDS011;2433;48.768;9.154;2023-06-04T14:46:01;2.20;;;1.77;;
4837;SDS011;2433;48.768;9.154;2023-06-04T14:48:27;2.50;;;2.30;;
4837;SDS011;2433;48.768;9.154;2023-06-04T14:50:53;3.60;;;1.83;;
4837;SDS011;2433;48.768;9.154;2023-06-04T14:53:20;2.00;;;1.60;;
4837;SDS011;2433;48.768;9.154;2023-06-04T14:55:45;3.33;;;1.97;;
4837;SDS011;2433;48.768;9.154;2023-06-04T14:58:14;1.40;;;1.30;;
4837;SDS011;2433;48.768;9.154;2023-06-04T15:00:44;1.10;;;0.80;;
4837;SDS011;2433;48.768;9.154;2023-06-04T15:03:09;3.40;;;2.77;;
4837;SDS011;2433;48.768;9.154;2023-06-04T15:05:36;1.80;;;1.70;;
4837;SDS011;2433;48.768;9.154;2023-06-04T15:08:01;5.47;;;2.43;;
4837;SDS011;2433;48.768;9.154;2023-06-04T15:10:28;1.80;;;1.50;;
4837;SDS011;2433;48.768;9.154;2023-06-04T15:12:53;2.83;;;1.83;;
4837;SDS011;2433;48.768;9.154;2023-06-04T15:15:19;1.80;;;1.60;;
4837;SDS011;2433;48.768;9.154;2023-06-04T15:17:45;1.37;;;1.27;;
4837;SDS011;2433;48.768;9.154;2023-06-04T15:20:11;1.60;;;1.50;;
4837;SDS011;2433;48.768;9.154;2023-06-04T15:22:36;2.00;;;1.80;;